Time;durP1;ratioP1;P1;durP2;ratioP2;P2;SDS_P1;SDS_P2;PMS_P1;PMS_P2;Temp;Humidity;BMP_temperature;BMP_pressure;BME280_temperature;BME280_humidity;BME280_pressure;Samples;Min_cycle;Max_cycle;Signal;HPM_P1;HPM_P2
2022/11/30 00:00:36;;;;;;;20.02;13.63;;;9.20;99.90;;;;;;5046593;28;20028;-41
2022/11/30 00:03:02;;;;;;;18.02;14.05;;;9.20;99.90;;;;;;5046434;28;20151;-41
2022/11/30 00:05:28;;;;;;;16.25;13.40;;;9.20;99.90;;;;;;5042271;28;20033;-42
2022/11/30 00:07:53;;;;;;;16.58;13.48;;;9.20;99.90;;;;;;5043794;28;20025;-39
2022/11/30 00:10:21;;;;;;;17.67;14.07;;;9.20;99.90;;;;;;5043518;28;20037;-41
2022/11/30 00:12:46;;;;;;;16.35;13.45;;;9.10;99.90;;;;;;5042669;28;20100;-42
2022/11/30 00:15:13;;;;;;;17.20;13.70;;;9.10;99.90;;;;;;5042682;28;20036;-42
2022/11/30 00:17:43;;;;;;;16.98;13.60;;;9.10;99.90;;;;;;5043386;28;20017;-41
2022/11/30 00:20:09;;;;;;;15.02;12.68;;;9.10;99.90;;;;;;5042810;28;20057;-39
2022/11/30 00:22:35;;;;;;;18.08;13.85;;;9.10;99.90;;;;;;5043716;28;20021;-40
2022/11/30 00:25:03;;;;;;;17.35;13.52;;;9.10;99.90;;;;;;5043738;28;20041;-41
2022/11/30 00:27:30;;;;;;;15.93;12.75;;;9.10;99.90;;;;;;5042573;28;20674;-41
2022/11/30 00:29:56;;;;;;;16.85;13.27;;;9.10;99.90;;;;;;5043199;28;20563;-40
2022/11/30 00:32:22;;;;;;;14.98;12.77;;;9.10;99.90;;;;;;5043120;28;20852;-39
2022/11/30 00:34:47;;;;;;;16.92;13.00;;;9.00;99.90;;;;;;5042527;28;20048;-40
2022/11/30 00:37:13;;;;;;;16.23;13.77;;;9.00;99.90;;;;;;5043133;28;20052;-40
2022/11/30 00:39:39;;;;;;;17.30;13.40;;;9.00;99.90;;;;;;5042896;28;20033;-41
2022/11/30 00:42:04;;;;;;;16.83;13.82;;;9.00;99.90;;;;;;5042004;28;20022;-40
2022/11/30 00:44:30;;;;;;;18.58;14.27;;;9.00;99.90;;;;;;5043402;28;20525;-41
2022/11/30 00:46:55;;;;;;;16.65;13.77;;;9.00;99.90;;;;;;5042186;28;20639;-40
2022/11/30 00:49:21;;;;;;;17.55;13.82;;;9.00;99.90;;;;;;5042664;28;20642;-40
2022/11/30 00:51:46;;;;;;;17.52;13.55;;;9.00;99.90;;;;;;5042660;28;20509;-41
2022/11/30 00:54:12;;;;;;;17.02;13.85;;;9.00;99.90;;;;;;5042585;28;20029;-41
2022/11/30 00:56:37;;;;;;;19.33;14.75;;;9.00;99.90;;;;;;5042703;28;20040;-41
2022/11/30 00:59:03;;;;;;;18.08;14.00;;;9.00;99.90;;;;;;5042867;28;20502;-39
2022/11/30 01:01:30;;;;;;;17.15;13.85;;;9.00;99.90;;;;;;5042426;28;20023;-41
2022/11/30 01:03:56;;;;;;;18.15;14.52;;;9.00;99.90;;;;;;5041896;28;20025;-41
2022/11/30 01:06:21;;;;;;;18.92;14.93;;;9.00;99.90;;;;;;5042968;28;20023;-40
2022/11/30 01:08:47;;;;;;;19.23;13.73;;;8.90;99.90;;;;;;5041108;28;20787;-39
2022/11/30 01:11:24;;;;;;;19.48;14.77;;;8.90;99.90;;;;;;5042634;28;20530;-41
2022/11/30 01:13:50;;;;;;;18.13;13.65;;;8.90;99.90;;;;;;5042047;28;20021;-41
2022/11/30 01:16:19;;;;;;;18.35;13.45;;;8.90;99.90;;;;;;5040984;28;20888;-40
2022/11/30 01:18:45;;;;;;;19.05;14.50;;;8.90;99.90;;;;;;5043053;28;20025;-40
2022/11/30 01:21:14;;;;;;;19.45;14.95;;;8.80;99.90;;;;;;5042279;28;20028;-40
2022/11/30 01:23:39;;;;;;;19.40;14.95;;;8.80;99.90;;;;;;5041232;28;20610;-40
2022/11/30 01:26:06;;;;;;;18.92;14.32;;;8.80;99.90;;;;;;5042277;28;20108;-41
2022/11/30 01:28:32;;;;;;;19.92;14.95;;;8.80;99.90;;;;;;5042298;28;20024;-40
2022/11/30 01:31:07;;;;;;;20.45;16.05;;;8.80;99.90;;;;;;5041755;28;20025;-39
2022/11/30 01:33:33;;;;;;;20.50;14.38;;;8.80;99.90;;;;;;5041880;28;20083;-39
2022/11/30 01:36:06;;;;;;;17.80;14.43;;;8.70;99.90;;;;;;5042366;28;20646;-40
2022/11/30 01:38:32;;;;;;;;;;;8.70;99.90;;;;;;5041649;28;20049;-40
2022/11/30 01:40:58;;;;;;;17.92;14.23;;;8.70;99.90;;;;;;5041828;28;19908;-41
2022/11/30 01:43:48;;;;;;;18.05;13.90;;;8.70;99.90;;;;;;5042184;28;20594;-41
2022/11/30 01:46:31;;;;;;;21.48;15.07;;;8.70;99.90;;;;;;5032912;28;20112;-41
2022/11/30 01:49:17;;;;;;;17.85;13.68;;;8.70;99.90;;;;;;5041773;28;20037;-40
2022/11/30 01:51:56;;;;;;;16.65;12.38;;;8.60;99.90;;;;;;5040918;28;20481;-41
2022/11/30 01:54:28;;;;;;;17.60;13.10;;;8.60;99.90;;;;;;5041508;28;20036;-40
2022/11/30 01:56:58;;;;;;;20.15;14.77;;;8.60;99.90;;;;;;5042351;28;20090;-42
2022/11/30 01:59:25;;;;;;;19.70;14.52;;;8.60;99.90;;;;;;5041299;28;20040;-42
2022/11/30 02:01:52;;;;;;;19.85;14.45;;;8.60;99.90;;;;;;5041533;28;20060;-42
2022/11/30 02:04:27;;;;;;;19.95;14.65;;;8.60;99.90;;;;;;5040867;28;20029;-40
2022/11/30 02:06:54;;;;;;;19.50;14.05;;;8.60;99.90;;;;;;5031590;28;20055;-42
2022/11/30 02:09:22;;;;;;;19.52;14.05;;;8.60;99.90;;;;;;5041833;28;20402;-42
2022/11/30 02:11:48;;;;;;;16.77;12.95;;;8.60;99.90;;;;;;5030517;28;20071;-41
2022/11/30 02:14:32;;;;;;;18.35;12.95;;;8.60;99.90;;;;;;5041711;28;20032;-40
2022/11/30 02:17:08;;;;;;;17.27;13.32;;;8.60;99.90;;;;;;5039573;28;20124;-41
2022/11/30 02:20:15;;;;;;;16.73;13.07;;;8.60;99.90;;;;;;5041222;28;20061;-42
2022/11/30 02:22:47;;;;;;;17.13;13.05;;;8.60;99.90;;;;;;5033672;28;20040;-40
2022/11/30 02:25:49;;;;;;;16.23;12.18;;;8.60;99.90;;;;;;5041550;28;20032;-42
2022/11/30 02:28:59;;;;;;;17.38;13.40;;;8.60;99.90;;;;;;5040426;28;20844;-40
2022/11/30 02:31:33;;;;;;;16.25;13.15;;;8.60;99.90;;;;;;5040921;28;20037;-37
2022/11/30 02:34:01;;;;;;;17.23;12.98;;;8.60;99.90;;;;;;5039805;28;20036;-38
2022/11/30 02:36:28;;;;;;;17.40;12.98;;;8.60;99.90;;;;;;5040898;28;20075;-39
2022/11/30 02:38:54;;;;;;;17.23;13.23;;;8.50;99.90;;;;;;5040154;28;20052;-42
2022/11/30 02:41:20;;;;;;;18.25;12.75;;;8.50;99.90;;;;;;5039416;28;20032;-39
2022/11/30 02:43:46;;;;;;;17.50;13.38;;;8.50;99.90;;;;;;5040733;28;20025;-41
2022/11/30 02:46:21;;;;;;;16.63;12.48;;;8.50;99.90;;;;;;5040725;28;20021;-42
2022/11/30 02:49:09;;;;;;;16.08;13.05;;;8.50;99.90;;;;;;5040306;28;20045;-39
2022/11/30 02:51:37;;;;;;;18.52;13.80;;;8.50;99.90;;;;;;5037187;28;20035;-41
2022/11/30 02:54:03;;;;;;;18.02;14.27;;;8.50;99.90;;;;;;5040026;28;20091;-42
2022/11/30 02:56:29;;;;;;;17.15;13.00;;;8.60;99.90;;;;;;5041155;28;20677;-41
2022/11/30 02:58:55;;;;;;;16.08;13.10;;;8.50;99.90;;;;;;5040571;28;20090;-41
2022/11/30 03:01:21;;;;;;;18.55;14.43;;;8.50;99.90;;;;;;5040065;28;20115;-40
2022/11/30 03:03:46;;;;;;;20.48;14.40;;;8.60;99.90;;;;;;5040425;28;20033;-41
2022/11/30 03:06:12;;;;;;;18.15;14.43;;;8.60;99.90;;;;;;5040669;28;20044;-38
2022/11/30 03:08:37;;;;;;;17.60;13.50;;;8.60;99.90;;;;;;5039941;28;20127;-40
2022/11/30 03:11:04;;;;;;;18.60;13.93;;;8.60;99.90;;;;;;5040245;28;20025;-40
2022/11/30 03:13:30;;;;;;;18.65;13.32;;;8.60;99.90;;;;;;5041160;28;20021;-40
2022/11/30 03:15:56;;;;;;;19.55;14.63;;;8.60;99.90;;;;;;5039705;28;20021;-40
2022/11/30 03:18:21;;;;;;;20.08;14.68;;;8.60;99.90;;;;;;5040719;28;20020;-39
2022/11/30 03:20:47;;;;;;;19.15;14.15;;;8.60;99.90;;;;;;5040732;28;20033;-40
2022/11/30 03:23:12;;;;;;;16.73;12.88;;;8.60;99.90;;;;;;5039267;28;20575;-41
2022/11/30 03:25:38;;;;;;;17.20;13.32;;;8.60;99.90;;;;;;5040348;28;20025;-41
2022/11/30 03:28:04;;;;;;;19.33;13.80;;;8.60;99.90;;;;;;5039813;28;20033;-41
2022/11/30 03:30:29;;;;;;;18.02;13.93;;;8.50;99.90;;;;;;5039726;28;20119;-41
2022/11/30 03:32:55;;;;;;;17.00;13.43;;;8.60;99.90;;;;;;5040429;28;20492;-40
2022/11/30 03:35:20;;;;;;;16.75;12.82;;;8.50;99.90;;;;;;5040385;28;20444;-40
2022/11/30 03:37:46;;;;;;;18.25;14.30;;;8.40;99.90;;;;;;5039634;28;20068;-41
2022/11/30 03:40:12;;;;;;;17.92;14.02;;;8.40;99.90;;;;;;5044515;28;20055;-38
2022/11/30 03:42:37;;;;;;;18.63;14.35;;;8.40;99.90;;;;;;5044019;28;20451;-40
2022/11/30 03:45:04;;;;;;;19.90;14.85;;;8.40;99.90;;;;;;5043538;28;20487;-41
2022/11/30 03:47:29;;;;;;;18.13;14.00;;;8.30;99.90;;;;;;5044247;28;20060;-41
2022/11/30 03:49:55;;;;;;;17.77;14.20;;;8.30;99.90;;;;;;5043232;28;20131;-38
2022/11/30 03:52:21;;;;;;;22.23;15.15;;;8.30;99.90;;;;;;5043211;28;20658;-39
2022/11/30 03:54:46;;;;;;;20.00;15.73;;;8.20;99.90;;;;;;5034157;28;20103;-40
2022/11/30 03:57:12;;;;;;;18.73;15.15;;;8.20;99.90;;;;;;5043968;28;20463;-40
2022/11/30 03:59:37;;;;;;;20.48;15.73;;;8.10;99.90;;;;;;5043971;28;20032;-40
2022/11/30 04:02:03;;;;;;;20.52;14.82;;;8.10;99.90;;;;;;5044482;28;20057;-42
2022/11/30 04:04:28;;;;;;;20.30;15.05;;;8.00;99.90;;;;;;5043159;28;20025;-38
2022/11/30 04:06:54;;;;;;;19.75;15.23;;;7.90;99.90;;;;;;5044158;28;20021;-42
2022/11/30 04:09:19;;;;;;;20.23;15.70;;;7.90;99.90;;;;;;5044067;28;20048;-41
2022/11/30 04:11:45;;;;;;;19.42;14.73;;;7.90;99.90;;;;;;5043712;28;20860;-41
2022/11/30 04:14:11;;;;;;;19.95;14.77;;;7.80;99.90;;;;;;5043779;28;20032;-39
2022/11/30 04:16:36;;;;;;;21.08;15.02;;;7.80;99.90;;;;;;5043923;28;20033;-40
2022/11/30 04:19:02;;;;;;;19.30;14.60;;;7.70;99.90;;;;;;5043021;28;20420;-42
2022/11/30 04:21:27;;;;;;;19.92;15.43;;;7.70;99.90;;;;;;5044341;28;20534;-41
2022/11/30 04:23:53;;;;;;;17.77;14.88;;;7.70;99.90;;;;;;5043431;28;20488;-40
2022/11/30 04:26:19;;;;;;;18.73;15.18;;;7.70;99.90;;;;;;5042089;28;20111;-40
2022/11/30 04:28:44;;;;;;;21.05;15.57;;;7.60;99.90;;;;;;5043529;28;20041;-40
2022/11/30 04:31:10;;;;;;;18.42;14.63;;;7.60;99.90;;;;;;5042796;28;20630;-40
2022/11/30 04:33:35;;;;;;;24.98;15.90;;;7.60;99.90;;;;;;5042490;28;20036;-41
2022/11/30 04:36:04;;;;;;;20.33;15.07;;;7.50;99.90;;;;;;5043045;28;20519;-40
2022/11/30 04:38:30;;;;;;;18.90;14.70;;;7.50;99.90;;;;;;5043141;28;20056;-37
2022/11/30 04:40:56;;;;;;;19.17;14.75;;;7.40;99.90;;;;;;5042368;28;20478;-38
2022/11/30 04:43:22;;;;;;;18.67;14.48;;;7.40;99.90;;;;;;5044111;28;20028;-41
2022/11/30 04:45:48;;;;;;;18.83;14.05;;;7.40;99.90;;;;;;5042200;28;20031;-40
2022/11/30 04:48:16;;;;;;;18.48;14.85;;;7.30;99.90;;;;;;5042281;28;20036;-40
2022/11/30 04:50:42;;;;;;;17.73;13.52;;;7.20;99.90;;;;;;5041807;28;20467;-41
2022/11/30 04:53:08;;;;;;;21.65;14.95;;;7.20;99.90;;;;;;5042508;28;20060;-40
2022/11/30 04:55:35;;;;;;;19.50;15.93;;;7.20;99.90;;;;;;5042752;28;20036;-41
2022/11/30 04:58:01;;;;;;;20.48;16.10;;;7.10;99.90;;;;;;5042593;28;20029;-41
2022/11/30 05:00:27;;;;;;;21.60;16.42;;;7.10;99.90;;;;;;5042012;28;20087;-41
2022/11/30 05:02:55;;;;;;;21.30;16.23;;;7.10;99.90;;;;;;5042510;28;20029;-40
2022/11/30 05:05:20;;;;;;;28.02;16.65;;;7.00;99.90;;;;;;5042830;28;20108;-40
2022/11/30 05:07:50;;;;;;;23.40;16.92;;;7.00;99.90;;;;;;5041880;28;20025;-39
2022/11/30 05:10:18;;;;;;;18.55;14.68;;;7.00;99.90;;;;;;5042570;28;20439;-42
2022/11/30 05:12:43;;;;;;;31.55;20.45;;;7.00;99.90;;;;;;5042729;28;20027;-41
2022/11/30 05:15:09;;;;;;;26.60;19.33;;;7.00;99.90;;;;;;5041637;28;20029;-39
2022/11/30 05:17:35;;;;;;;24.23;17.88;;;6.90;99.90;;;;;;5042358;28;20017;-41
2022/11/30 05:20:01;;;;;;;21.02;16.15;;;6.90;99.90;;;;;;5042352;28;20116;-39
2022/11/30 05:22:26;;;;;;;25.13;17.20;;;6.90;99.90;;;;;;5042568;28;20773;-41
2022/11/30 05:24:52;;;;;;;24.92;17.80;;;6.90;99.90;;;;;;5042786;28;20582;-41
2022/11/30 05:27:17;;;;;;;24.45;17.83;;;6.90;99.90;;;;;;5041856;28;20477;-41
2022/11/30 05:29:43;;;;;;;24.20;18.30;;;6.90;99.90;;;;;;5041759;28;20045;-41
2022/11/30 05:32:08;;;;;;;26.08;18.65;;;6.80;99.90;;;;;;5041620;28;20035;-40
2022/11/30 05:34:34;;;;;;;22.17;17.80;;;6.80;99.90;;;;;;5042356;28;20033;-40
2022/11/30 05:36:59;;;;;;;24.35;18.33;;;6.80;99.90;;;;;;5040725;28;20045;-41
2022/11/30 05:39:25;;;;;;;23.67;18.10;;;6.80;99.90;;;;;;5042488;28;20025;-41
2022/11/30 05:41:50;;;;;;;25.20;18.73;;;6.80;99.90;;;;;;5041921;28;20052;-38
2022/11/30 05:44:16;;;;;;;23.80;18.42;;;6.70;99.90;;;;;;5040486;28;20933;-41
2022/11/30 05:46:41;;;;;;;23.80;18.85;;;6.70;99.90;;;;;;5041785;28;20035;-40
2022/11/30 05:49:07;;;;;;;24.15;18.02;;;6.70;99.90;;;;;;5041667;28;20033;-42
2022/11/30 05:51:32;;;;;;;23.70;17.40;;;6.70;99.90;;;;;;5041753;28;20083;-42
2022/11/30 05:53:58;;;;;;;23.77;17.55;;;6.70;99.90;;;;;;5041923;28;20028;-41
2022/11/30 05:56:24;;;;;;;25.00;18.23;;;6.70;99.90;;;;;;5041498;28;20481;-41
2022/11/30 05:58:49;;;;;;;21.90;16.40;;;6.70;99.90;;;;;;5041512;28;20040;-41
2022/11/30 06:01:20;;;;;;;20.98;15.75;;;6.70;99.90;;;;;;5041866;28;20027;-41
2022/11/30 06:03:46;;;;;;;19.58;14.93;;;6.70;99.90;;;;;;5040025;28;20726;-40
2022/11/30 06:06:12;;;;;;;20.48;14.60;;;6.60;99.90;;;;;;5041101;28;20032;-40
2022/11/30 06:08:37;;;;;;;17.90;13.90;;;6.60;99.90;;;;;;5041230;28;20041;-40
2022/11/30 06:11:03;;;;;;;20.33;15.10;;;6.60;99.90;;;;;;5040640;28;20779;-41
2022/11/30 06:13:31;;;;;;;19.92;15.02;;;6.60;99.90;;;;;;5041476;28;20036;-40
2022/11/30 06:16:04;;;;;;;17.05;13.68;;;6.50;99.90;;;;;;5041566;28;20051;-40
2022/11/30 06:18:29;;;;;;;15.90;12.45;;;6.50;99.90;;;;;;5041278;28;20021;-39
2022/11/30 06:21:03;;;;;;;18.95;13.88;;;6.40;99.90;;;;;;5041649;28;20725;-40
2022/11/30 06:23:28;;;;;;;16.85;12.80;;;6.40;99.90;;;;;;5041826;28;20025;-40
2022/11/30 06:25:54;;;;;;;16.58;13.27;;;6.40;99.90;;;;;;5040514;28;20033;-40
2022/11/30 06:28:20;;;;;;;14.05;11.02;;;6.40;99.90;;;;;;5040856;28;20099;-40
2022/11/30 06:30:45;;;;;;;14.68;11.25;;;6.40;99.90;;;;;;5041569;28;20369;-39
2022/11/30 06:33:11;;;;;;;16.80;12.93;;;6.40;99.90;;;;;;5039697;28;20048;-42
2022/11/30 06:35:36;;;;;;;17.02;12.68;;;6.30;99.90;;;;;;5041494;28;20542;-37
2022/11/30 06:38:02;;;;;;;16.13;12.77;;;6.30;99.90;;;;;;5040393;28;20059;-39
2022/11/30 06:40:27;;;;;;;15.73;12.05;;;6.20;99.90;;;;;;5040192;28;20062;-40
2022/11/30 06:42:53;;;;;;;15.98;12.90;;;6.10;99.90;;;;;;5041168;28;20120;-40
2022/11/30 06:45:19;;;;;;;15.57;12.88;;;6.10;99.90;;;;;;5040059;28;20017;-41
2022/11/30 06:47:45;;;;;;;13.55;11.50;;;6.00;99.90;;;;;;5040217;28;20393;-40
2022/11/30 06:50:12;;;;;;;14.85;10.63;;;6.00;99.90;;;;;;5039841;28;20090;-37
2022/11/30 06:52:38;;;;;;;13.90;10.48;;;6.00;99.90;;;;;;5041323;28;20025;-41
2022/11/30 06:55:04;;;;;;;12.80;10.23;;;5.90;99.90;;;;;;5039979;28;20401;-41
2022/11/30 06:57:30;;;;;;;12.68;10.10;;;5.90;99.90;;;;;;5041284;28;20032;-40
2022/11/30 06:59:56;;;;;;;11.50;9.73;;;5.80;99.90;;;;;;5038144;28;20060;-40
2022/11/30 07:02:22;;;;;;;14.02;10.73;;;5.80;99.90;;;;;;5040776;28;20024;-40
2022/11/30 07:04:48;;;;;;;13.68;10.52;;;5.70;99.90;;;;;;5040684;28;20032;-41
2022/11/30 07:07:14;;;;;;;13.75;10.85;;;5.60;99.90;;;;;;5039843;28;20021;-40
2022/11/30 07:09:40;;;;;;;14.57;11.85;;;5.60;99.90;;;;;;5039533;28;20055;-40
2022/11/30 07:12:06;;;;;;;17.45;11.48;;;5.60;99.90;;;;;;5040488;28;20376;-40
2022/11/30 07:14:32;;;;;;;34.90;11.88;;;5.50;99.90;;;;;;5041769;28;20027;-42
2022/11/30 07:16:57;;;;;;;27.25;11.50;;;5.50;99.90;;;;;;5044022;28;20565;-40
2022/11/30 07:19:23;;;;;;;24.88;11.50;;;5.50;99.90;;;;;;5044237;28;20131;-39
2022/11/30 07:21:49;;;;;;;40.08;11.35;;;5.50;99.90;;;;;;5043240;28;20051;-40
2022/11/30 07:27:00;;;;;;;29.17;10.95;;;5.40;99.90;;;;;;5042982;28;20040;-41
2022/11/30 07:29:26;;;;;;;38.47;10.02;;;5.50;99.90;;;;;;5043295;28;20432;-41
2022/11/30 07:31:53;;;;;;;38.65;11.45;;;5.50;99.90;;;;;;5043605;28;20079;-41
2022/11/30 07:34:18;;;;;;;25.50;11.10;;;5.50;99.90;;;;;;5044027;28;20029;-41
2022/11/30 07:36:45;;;;;;;24.52;11.32;;;5.50;99.90;;;;;;5043629;28;20025;-40
2022/11/30 07:39:11;;;;;;;20.58;11.60;;;5.50;99.90;;;;;;5043573;28;20425;-40
2022/11/30 07:41:37;;;;;;;29.23;11.13;;;5.50;99.90;;;;;;5044270;28;20071;-40
2022/11/30 07:44:07;;;;;;;21.80;10.60;;;5.50;99.90;;;;;;5042999;28;20115;-40
2022/11/30 07:46:34;;;;;;;21.27;9.60;;;5.50;99.90;;;;;;5043749;28;20051;-41
2022/11/30 07:49:01;;;;;;;34.40;10.27;;;5.50;99.90;;;;;;5042419;28;20044;-40
2022/11/30 07:51:27;;;;;;;35.38;10.32;;;5.50;99.90;;;;;;5043085;28;20028;-41
2022/11/30 07:53:55;;;;;;;21.75;10.23;;;5.60;99.90;;;;;;5043791;28;20029;-40
2022/11/30 07:56:21;;;;;;;25.67;9.98;;;5.60;99.90;;;;;;5041705;28;20040;-39
2022/11/30 07:58:49;;;;;;;23.63;9.77;;;5.60;99.90;;;;;;5042897;28;20034;-39
2022/11/30 08:01:17;;;;;;;17.25;10.07;;;5.70;99.90;;;;;;5044194;28;20029;-40
2022/11/30 08:03:43;;;;;;;20.08;10.55;;;5.70;99.90;;;;;;5043037;28;20664;-43
2022/11/30 08:06:11;;;;;;;16.65;9.85;;;5.70;99.90;;;;;;5043805;28;20025;-39
2022/11/30 08:08:39;;;;;;;19.95;10.65;;;5.80;99.90;;;;;;5043177;28;20029;-41
2022/11/30 08:11:06;;;;;;;15.65;10.05;;;5.80;99.90;;;;;;5043468;28;20032;-41
2022/11/30 08:13:32;;;;;;;16.17;10.35;;;5.80;99.90;;;;;;5043728;28;20628;-37
2022/11/30 08:16:12;;;;;;;14.15;10.63;;;5.90;99.90;;;;;;5043737;28;20132;-37
2022/11/30 08:18:38;;;;;;;12.30;9.57;;;5.90;99.90;;;;;;5042340;28;20032;-41
2022/11/30 08:21:06;;;;;;;15.07;10.90;;;6.00;99.90;;;;;;5043483;28;20459;-40
2022/11/30 08:23:38;;;;;;;12.00;10.55;;;6.00;99.90;;;;;;5043513;28;20033;-40
2022/11/30 08:26:15;;;;;;;12.13;10.53;;;6.00;99.90;;;;;;5041813;28;20091;-40
2022/11/30 08:28:42;;;;;;;12.38;9.82;;;6.10;99.90;;;;;;5042632;28;20083;-39
2022/11/30 08:31:11;;;;;;;11.88;9.70;;;6.10;99.90;;;;;;5042576;28;20472;-42
2022/11/30 08:33:37;;;;;;;10.48;8.80;;;6.10;99.90;;;;;;5043038;28;20110;-41
2022/11/30 08:36:11;;;;;;;15.32;11.32;;;6.10;99.90;;;;;;5043468;28;20029;-40
2022/11/30 08:38:38;;;;;;;15.38;11.70;;;6.20;99.90;;;;;;5041982;28;20080;-40
2022/11/30 08:41:05;;;;;;;16.17;12.32;;;6.20;99.90;;;;;;5043335;28;20592;-42
2022/11/30 08:43:30;;;;;;;15.02;11.82;;;6.30;99.90;;;;;;5043426;28;20036;-41
2022/11/30 08:45:56;;;;;;;16.92;12.82;;;6.40;99.90;;;;;;5042900;28;20033;-42
2022/11/30 08:48:22;;;;;;;14.90;11.73;;;6.40;99.90;;;;;;5042733;28;20472;-40
2022/11/30 08:50:48;;;;;;;17.45;13.30;;;6.40;99.90;;;;;;5043161;28;20625;-41
2022/11/30 08:53:13;;;;;;;17.85;12.98;;;6.50;99.90;;;;;;5041893;28;20036;-41
2022/11/30 08:55:39;;;;;;;17.63;13.20;;;6.50;99.90;;;;;;5042676;28;20028;-38
2022/11/30 08:58:05;;;;;;;17.85;13.63;;;6.50;99.90;;;;;;5042159;28;20017;-41
2022/11/30 09:00:30;;;;;;;19.17;13.90;;;6.50;99.90;;;;;;5042279;28;20056;-41
2022/11/30 09:02:56;;;;;;;21.38;14.95;;;6.50;99.90;;;;;;5042938;28;20086;-39
2022/11/30 09:05:22;;;;;;;20.35;14.68;;;6.60;99.90;;;;;;5038988;28;20033;-41
2022/11/30 09:07:47;;;;;;;20.40;14.63;;;6.70;99.90;;;;;;5042185;28;20028;-40
2022/11/30 09:10:13;;;;;;;21.75;14.85;;;6.70;99.90;;;;;;5042431;28;20756;-41
2022/11/30 09:12:40;;;;;;;21.23;15.27;;;6.70;99.90;;;;;;5041796;28;20021;-41
2022/11/30 09:15:07;;;;;;;23.88;17.40;;;6.80;99.90;;;;;;5041787;28;20796;-38
2022/11/30 09:17:33;;;;;;;29.73;18.85;;;6.80;99.90;;;;;;5041896;28;20073;-41
2022/11/30 09:20:02;;;;;;;26.17;18.08;;;6.90;99.90;;;;;;5041985;28;20035;-40
2022/11/30 09:22:27;;;;;;;27.05;18.35;;;6.90;99.90;;;;;;5041576;28;20491;-41
2022/11/30 09:24:53;;;;;;;28.30;18.52;;;6.90;99.90;;;;;;5042420;28;20059;-41
2022/11/30 09:27:19;;;;;;;27.48;18.65;;;6.90;99.90;;;;;;5042190;28;20039;-45
2022/11/30 09:29:45;;;;;;;26.13;18.15;;;7.00;99.90;;;;;;5041353;28;20068;-41
2022/11/30 09:32:11;;;;;;;29.90;18.23;;;7.00;99.90;;;;;;5042464;28;20267;-41
2022/11/30 09:34:36;;;;;;;24.30;17.20;;;7.10;99.90;;;;;;5041480;28;20024;-41
2022/11/30 09:37:02;;;;;;;23.38;16.50;;;7.10;99.90;;;;;;5041433;28;20041;-40
2022/11/30 09:39:27;;;;;;;23.80;16.60;;;7.10;99.90;;;;;;5042408;28;20698;-41
2022/11/30 09:42:16;;;;;;;26.40;17.73;;;7.20;99.90;;;;;;5041073;28;20025;-41
2022/11/30 09:45:03;;;;;;;24.33;16.73;;;7.20;99.90;;;;;;5042019;28;20040;-40
2022/11/30 09:47:37;;;;;;;25.88;17.25;;;7.30;99.90;;;;;;5033047;28;20071;-41
2022/11/30 09:50:19;;;;;;;24.08;16.92;;;7.30;99.90;;;;;;5041302;28;20042;-40
2022/11/30 09:52:54;;;;;;;20.65;15.15;;;7.30;99.90;;;;;;5041245;28;20033;-40
2022/11/30 09:55:29;;;;;;;25.88;16.70;;;7.30;99.90;;;;;;5041991;28;20028;-41
2022/11/30 09:58:00;;;;;;;24.15;16.83;;;7.30;99.90;;;;;;5041729;28;20059;-41
2022/11/30 10:00:26;;;;;;;26.17;17.67;;;7.30;99.90;;;;;;5041943;28;20052;-41
2022/11/30 10:02:54;;;;;;;22.85;15.95;;;7.30;99.90;;;;;;5041642;28;20109;-41
2022/11/30 10:06:03;;;;;;;22.67;15.98;;;7.30;99.90;;;;;;5043129;28;20017;-40
2022/11/30 10:08:38;;;;;;;20.98;15.57;;;7.30;99.90;;;;;;5036269;28;20926;-42
2022/11/30 10:11:27;;;;;;;22.20;15.55;;;7.30;99.90;;;;;;5040565;28;20017;-40
2022/11/30 10:14:11;;;;;;;22.42;15.70;;;7.30;99.90;;;;;;5041893;28;20108;-40
2022/11/30 10:16:46;;;;;;;22.73;16.40;;;7.30;99.90;;;;;;5041497;28;20079;-40
2022/11/30 10:19:37;;;;;;;22.88;16.23;;;7.30;99.90;;;;;;5041774;28;20035;-40
2022/11/30 10:22:35;;;;;;;24.63;15.60;;;7.20;99.90;;;;;;5041842;28;20107;-40
2022/11/30 10:25:22;;;;;;;23.85;16.42;;;7.20;99.90;;;;;;5020995;28;20029;-40
2022/11/30 10:27:52;;;;;;;24.42;15.57;;;7.10;99.90;;;;;;5040334;28;20041;-40
2022/11/30 10:30:23;;;;;;;22.77;16.05;;;7.10;99.90;;;;;;5041590;28;20037;-40
2022/11/30 10:32:53;;;;;;;23.77;16.33;;;7.10;99.90;;;;;;5040276;28;20029;-41
2022/11/30 10:35:37;;;;;;;24.13;15.85;;;7.10;99.90;;;;;;5041266;28;20033;-41
2022/11/30 10:38:34;;;;;;;22.88;15.85;;;7.10;99.90;;;;;;5040583;28;20041;-40
2022/11/30 10:41:29;;;;;;;22.35;15.30;;;7.10;99.90;;;;;;5031384;28;20572;-40
2022/11/30 10:44:03;;;;;;;21.30;14.40;;;7.10;99.90;;;;;;5040747;28;20698;-41
2022/11/30 10:46:42;;;;;;;20.10;13.40;;;7.20;99.90;;;;;;5040733;28;20017;-41
2022/11/30 10:49:14;;;;;;;17.17;12.40;;;7.20;99.90;;;;;;5040356;28;20414;-39
2022/11/30 10:51:44;;;;;;;17.40;12.38;;;7.30;99.90;;;;;;5040854;28;20032;-40
2022/11/30 10:54:19;;;;;;;19.85;14.20;;;7.30;99.90;;;;;;5040140;28;20033;-40
2022/11/30 10:56:45;;;;;;;19.90;14.15;;;7.30;99.90;;;;;;5041367;28;20037;-41
2022/11/30 10:59:24;;;;;;;19.73;14.18;;;7.40;99.90;;;;;;5041415;28;20567;-41
2022/11/30 11:01:52;;;;;;;18.83;14.07;;;7.40;99.90;;;;;;5041421;28;20488;-41
2022/11/30 11:04:26;;;;;;;19.65;14.52;;;7.50;99.90;;;;;;5040964;28;20087;-40
2022/11/30 11:07:05;;;;;;;22.15;15.02;;;7.50;99.90;;;;;;5040574;28;20132;-40
2022/11/30 11:09:39;;;;;;;20.27;14.05;;;7.60;99.90;;;;;;5041083;28;20095;-41
2022/11/30 11:12:16;;;;;;;17.95;12.65;;;7.60;99.90;;;;;;5040438;28;20072;-40
2022/11/30 11:14:42;;;;;;;17.92;12.52;;;7.60;99.90;;;;;;5036733;28;20117;-41
2022/11/30 11:17:17;;;;;;;18.60;14.23;;;7.70;99.90;;;;;;5040013;28;20045;-40
2022/11/30 11:19:44;;;;;;;21.92;15.52;;;7.70;99.90;;;;;;5039464;28;20025;-41
2022/11/30 11:22:16;;;;;;;20.58;14.68;;;7.70;99.90;;;;;;5039993;28;20033;-40
2022/11/30 11:24:42;;;;;;;21.13;15.07;;;7.70;99.90;;;;;;5040604;28;20025;-41
2022/11/30 11:27:26;;;;;;;21.38;15.10;;;7.80;99.90;;;;;;5040467;28;20029;-41
2022/11/30 11:30:14;;;;;;;22.90;16.42;;;7.80;99.90;;;;;;5041438;28;20791;-41
2022/11/30 11:32:55;;;;;;;23.73;17.58;;;7.90;99.90;;;;;;5041385;28;20385;-42
2022/11/30 11:35:42;;;;;;;24.77;16.65;;;7.90;99.90;;;;;;5040347;28;20029;-41
2022/11/30 11:38:28;;;;;;;25.02;16.08;;;7.90;99.90;;;;;;5039838;28;20394;-41
2022/11/30 11:40:57;;;;;;;28.38;18.63;;;7.90;99.90;;;;;;5040331;28;20029;-42
2022/11/30 11:43:25;;;;;;;26.48;18.02;;;7.90;99.90;;;;;;5040320;28;20496;-40
2022/11/30 11:45:54;;;;;;;26.13;17.88;;;7.90;99.90;;;;;;5040509;28;20033;-41
2022/11/30 11:48:44;;;;;;;28.20;18.40;;;7.90;99.90;;;;;;5040394;28;20064;-42
2022/11/30 11:51:10;;;;;;;25.38;18.20;;;7.90;99.90;;;;;;5038731;28;20036;-42
2022/11/30 11:53:38;;;;;;;21.80;16.13;;;7.90;99.90;;;;;;5039930;28;20061;-43
2022/11/30 11:56:15;;;;;;;23.27;16.10;;;7.90;99.90;;;;;;5036531;28;20036;-39
2022/11/30 11:59:05;;;;;;;24.33;16.85;;;7.90;99.90;;;;;;5041303;28;20039;-40
2022/11/30 12:02:00;;;;;;;21.73;15.65;;;7.90;99.90;;;;;;5044844;28;20048;-40
2022/11/30 12:04:41;;;;;;;24.20;16.38;;;7.90;99.90;;;;;;5042665;28;20358;-41
2022/11/30 12:07:19;;;;;;;24.25;15.85;;;8.00;99.90;;;;;;5043765;28;20047;-41
2022/11/30 12:10:17;;;;;;;23.85;15.85;;;8.00;99.90;;;;;;5043401;28;20164;-41
2022/11/30 12:12:43;;;;;;;23.25;16.80;;;8.10;99.90;;;;;;5043568;28;20029;-41
2022/11/30 12:15:11;;;;;;;20.95;15.00;;;8.10;99.90;;;;;;5043111;28;20028;-40
2022/11/30 12:17:59;;;;;;;23.35;15.13;;;8.20;99.90;;;;;;5042807;28;20025;-40
2022/11/30 12:20:32;;;;;;;19.98;14.05;;;8.40;99.90;;;;;;5043898;28;21021;-42
2022/11/30 12:23:14;;;;;;;19.20;13.63;;;8.50;99.90;;;;;;5043528;28;20048;-41
2022/11/30 12:25:55;;;;;;;18.17;12.93;;;8.60;99.90;;;;;;5043608;28;20024;-39
2022/11/30 12:28:30;;;;;;;17.17;12.00;;;8.70;99.90;;;;;;5042816;28;20056;-41
2022/11/30 12:31:16;;;;;;;18.00;13.25;;;8.80;99.90;;;;;;5043150;28;20117;-42
2022/11/30 12:34:17;;;;;;;19.67;12.48;;;8.80;99.90;;;;;;5043420;28;20643;-41
2022/11/30 12:37:11;;;;;;;16.42;11.70;;;8.90;99.90;;;;;;5043616;28;20626;-41
2022/11/30 12:40:04;;;;;;;16.75;13.00;;;8.90;99.90;;;;;;5023078;28;20352;-40
2022/11/30 12:42:58;;;;;;;;;;;8.80;99.90;;;;;;5043284;28;20021;-40
2022/11/30 12:45:37;;;;;;;17.38;12.52;;;8.80;99.90;;;;;;5033631;28;19954;-41
2022/11/30 12:48:31;;;;;;;19.02;13.27;;;8.80;99.90;;;;;;5042989;28;20021;-38
2022/11/30 12:51:27;;;;;;;19.17;12.85;;;8.80;99.90;;;;;;5041790;28;20053;-41
2022/11/30 12:54:32;;;;;;;18.60;13.10;;;8.80;99.90;;;;;;5035546;28;20083;-41
2022/11/30 12:57:21;;;;;;;23.02;15.30;;;8.80;99.90;;;;;;5042587;28;20135;-41